Time;durP1;ratioP1;P1;durP2;ratioP2;P2;SDS_P1;SDS_P2;PMS_P1;PMS_P2;Temp;Humidity;BMP_temperature;BMP_pressure;BME280_temperature;BME280_humidity;BME280_pressure;Samples;Min_cycle;Max_cycle;Signal;HPM_P1;HPM_P2
2022/08/24 00:01:12;;;;;;;3.38;1.20;;;;;;;14.01;100.00;100592.75;4988719;28;20041;-76
2022/08/24 00:03:39;;;;;;;5.05;1.58;;;;;;;13.92;100.00;100585.84;4979801;28;20073;-76
2022/08/24 00:06:08;;;;;;;1.83;1.20;;;;;;;13.76;100.00;100585.19;4994322;28;20495;-76
2022/08/24 00:08:35;;;;;;;4.85;1.48;;;;;;;13.57;100.00;100591.28;4984569;28;20029;-76
2022/08/24 00:11:00;;;;;;;3.75;1.80;;;;;;;13.40;100.00;100590.78;5006436;28;20069;-77
2022/08/24 00:13:27;;;;;;;4.55;1.30;;;;;;;13.30;100.00;100595.72;4982598;28;20512;-76
2022/08/24 00:15:53;;;;;;;5.07;1.30;;;;;;;13.17;100.00;100591.84;4988730;28;20048;-76
2022/08/24 00:18:19;;;;;;;7.28;2.00;;;;;;;13.11;100.00;100598.03;4969497;28;20038;-76
2022/08/24 00:20:45;;;;;;;2.30;1.20;;;;;;;13.06;100.00;100595.09;5003597;28;20112;-76
2022/08/24 00:23:11;;;;;;;4.68;1.77;;;;;;;13.08;100.00;100598.44;5004212;28;20036;-76
2022/08/24 00:25:36;;;;;;;5.80;1.52;;;;;;;13.05;100.00;100585.34;4989093;28;20077;-76
2022/08/24 00:28:03;;;;;;;3.05;1.75;;;;;;;13.14;100.00;100600.34;4968286;28;20029;-76
2022/08/24 00:30:29;;;;;;;4.45;1.40;;;;;;;12.99;100.00;100599.59;4996927;28;20084;-76
2022/08/24 00:32:54;;;;;;;5.43;1.75;;;;;;;12.80;100.00;100606.50;4991848;28;20033;-77
2022/08/24 00:35:20;;;;;;;4.00;1.40;;;;;;;12.75;100.00;100609.81;4998345;28;20042;-76
2022/08/24 00:37:48;;;;;;;5.82;1.60;;;;;;;12.67;100.00;100592.91;5002349;28;20037;-76
2022/08/24 00:40:24;;;;;;;2.17;1.20;;;;;;;12.72;100.00;100604.78;4966177;28;20037;-76
2022/08/24 00:42:49;;;;;;;7.03;2.10;;;;;;;12.74;100.00;100605.41;4971097;28;20026;-76
2022/08/24 00:45:16;;;;;;;6.32;3.08;;;;;;;12.79;100.00;100612.13;4985430;28;20040;-76
2022/08/24 00:47:47;;;;;;;5.75;1.85;;;;;;;12.85;100.00;100604.06;4986227;28;20031;-76
2022/08/24 00:50:24;;;;;;;5.90;1.42;;;;;;;12.94;100.00;100607.47;5000051;28;20801;-75
2022/08/24 00:52:55;;;;;;;3.80;1.55;;;;;;;12.88;100.00;100587.47;4967389;28;20449;-76
2022/08/24 00:55:29;;;;;;;4.70;1.60;;;;;;;12.85;100.00;100597.84;4998819;28;20064;-77
2022/08/24 00:57:59;;;;;;;3.63;1.27;;;;;;;12.80;100.00;100603.81;4982205;28;20030;-76
2022/08/24 01:00:28;;;;;;;5.20;1.50;;;;;;;12.84;100.00;100601.56;5005703;28;20306;-76
2022/08/24 01:03:03;;;;;;;4.25;1.38;;;;;;;12.90;100.00;100606.19;4998191;28;20038;-76
2022/08/24 01:05:30;;;;;;;8.90;2.00;;;;;;;12.96;100.00;100600.00;4987388;28;20052;-76
2022/08/24 01:07:57;;;;;;;4.72;1.50;;;;;;;13.02;100.00;100604.63;4999278;28;20159;-76
2022/08/24 01:10:26;;;;;;;4.50;1.75;;;;;;;13.01;100.00;100602.94;4986687;28;20053;-76
2022/08/24 01:12:57;;;;;;;4.25;1.73;;;;;;;13.04;100.00;100607.13;5000859;28;20120;-75
2022/08/24 01:15:23;;;;;;;3.10;1.50;;;;;;;13.07;100.00;100610.28;4973500;28;20045;-76
2022/08/24 01:20:34;;;;;;;3.88;1.60;;;;;;;13.07;100.00;100594.09;5004844;28;20527;-76
2022/08/24 01:23:10;;;;;;;4.90;1.48;;;;;;;13.10;100.00;100601.78;4977769;28;20038;-76
2022/08/24 01:25:37;;;;;;;5.00;1.73;;;;;;;12.98;100.00;100597.94;4970589;28;20057;-75
2022/08/24 01:28:09;;;;;;;6.18;1.52;;;;;;;12.75;100.00;100581.97;4976997;28;20046;-78
2022/08/24 01:30:36;;;;;;;4.95;1.48;;;;;;;12.76;100.00;100595.28;5005688;28;20543;-76
2022/08/24 01:33:05;;;;;;;5.50;1.67;;;;;;;12.72;100.00;100585.88;5005168;28;20048;-76
2022/08/24 01:35:32;;;;;;;5.78;1.83;;;;;;;12.71;100.00;100596.88;5004333;28;20125;-77
2022/08/24 01:38:01;;;;;;;4.85;1.70;;;;;;;12.67;100.00;100591.03;5000731;28;20300;-75
2022/08/24 01:40:33;;;;;;;10.50;1.77;;;;;;;12.75;100.00;100596.31;5003425;28;20096;-76
2022/08/24 01:42:59;;;;;;;6.57;2.30;;;;;;;12.80;100.00;100602.97;5001937;28;20491;-77
2022/08/24 01:45:25;;;;;;;6.18;1.75;;;;;;;12.75;100.00;100593.63;5001929;28;20069;-76
2022/08/24 01:47:51;;;;;;;4.25;1.70;;;;;;;12.68;100.00;100602.69;5003907;28;20030;-75
2022/08/24 01:50:16;;;;;;;9.68;1.92;;;;;;;12.58;100.00;100597.59;4983377;28;20031;-77
2022/08/24 01:52:43;;;;;;;7.63;1.80;;;;;;;12.42;100.00;100587.06;5007403;28;20435;-76
2022/08/24 01:55:14;;;;;;;5.20;1.45;;;;;;;12.34;100.00;100587.19;4996791;28;20081;-77
2022/08/24 01:57:39;;;;;;;6.53;1.77;;;;;;;12.19;100.00;100592.63;5002410;28;20058;-76
2022/08/24 02:00:08;;;;;;;6.40;1.67;;;;;;;11.94;100.00;100594.84;5008359;28;20045;-76
2022/08/24 02:02:33;;;;;;;4.00;1.55;;;;;;;11.73;100.00;100593.72;4996326;28;20133;-77
2022/08/24 02:04:59;;;;;;;7.72;1.95;;;;;;;11.58;100.00;100598.25;4999246;28;20125;-75
2022/08/24 02:07:25;;;;;;;5.82;1.85;;;;;;;11.45;100.00;100580.06;4980907;28;20387;-76
2022/08/24 02:09:51;;;;;;;4.88;1.58;;;;;;;11.35;100.00;100593.81;5008924;28;20029;-76
2022/08/24 02:12:17;;;;;;;4.95;1.60;;;;;;;11.22;100.00;100590.94;4994816;28;20144;-76
2022/08/24 02:14:43;;;;;;;9.65;2.15;;;;;;;11.20;100.00;100604.56;4985609;28;20034;-75
2022/08/24 02:17:10;;;;;;;6.85;1.80;;;;;;;11.17;100.00;100594.16;4976888;28;20092;-76
2022/08/24 02:19:36;;;;;;;4.25;1.70;;;;;;;11.15;100.00;100590.81;4998912;28;20073;-75
2022/08/24 02:22:04;;;;;;;4.43;1.90;;;;;;;11.10;100.00;100582.47;5008913;28;20118;-77
2022/08/24 02:24:33;;;;;;;10.90;1.40;;;;;;;11.04;100.00;100583.19;5009231;28;20080;-76
2022/08/24 02:26:58;;;;;;;5.15;1.50;;;;;;;11.07;100.00;100582.00;5005947;28;20396;-75
2022/08/24 02:29:24;;;;;;;5.82;1.33;;;;;;;11.13;100.00;100600.09;4991579;28;20472;-76
2022/08/24 02:31:50;;;;;;;6.55;1.70;;;;;;;11.03;100.00;100596.81;4971198;28;20034;-76
2022/08/24 02:34:19;;;;;;;5.10;1.85;;;;;;;10.87;100.00;100600.50;4989419;28;20046;-76
2022/08/24 02:36:45;;;;;;;3.65;1.45;;;;;;;10.72;100.00;100595.09;4971965;28;20037;-75
2022/08/24 02:39:11;;;;;;;4.47;1.73;;;;;;;10.63;100.00;100598.84;4999614;28;20041;-76
2022/08/24 02:41:37;;;;;;;8.02;1.90;;;;;;;10.62;100.00;100598.03;4998139;28;20472;-76
2022/08/24 02:44:03;;;;;;;5.70;1.92;;;;;;;10.48;100.00;100605.03;4965549;28;20038;-76
2022/08/24 02:46:29;;;;;;;5.35;1.80;;;;;;;10.45;100.00;100601.84;4986090;28;20042;-76
2022/08/24 02:49:00;;;;;;;5.55;2.00;;;;;;;10.36;100.00;100603.75;4983258;28;20037;-75
2022/08/24 02:51:31;;;;;;;7.55;1.88;;;;;;;10.39;100.00;100594.50;4972467;28;20658;-76
2022/08/24 02:53:57;;;;;;;7.05;1.80;;;;;;;10.36;100.00;100590.31;5001749;28;20038;-76
2022/08/24 02:56:24;;;;;;;4.57;1.80;;;;;;;10.33;100.00;100590.66;4971551;28;20604;-76
2022/08/24 02:58:50;;;;;;;6.28;1.70;;;;;;;10.32;100.00;100595.22;5001404;28;20026;-75
2022/08/24 03:01:16;;;;;;;3.17;1.55;;;;;;;10.24;100.00;100602.44;5001657;28;20037;-75
2022/08/24 03:03:42;;;;;;;6.30;1.92;;;;;;;10.15;100.00;100582.03;4998467;28;20031;-75
2022/08/24 03:06:08;;;;;;;8.38;2.08;;;;;;;10.21;100.00;100608.19;4990775;28;20061;-75
2022/08/24 03:08:34;;;;;;;4.00;1.55;;;;;;;10.15;100.00;100615.09;4983523;28;20038;-74
2022/08/24 03:11:00;;;;;;;10.27;2.03;;;;;;;9.98;100.00;100590.19;5008215;28;20073;-76
2022/08/24 03:13:27;;;;;;;4.15;1.75;;;;;;;10.01;100.00;100613.16;4979475;28;20116;-76
2022/08/24 03:15:54;;;;;;;4.00;1.50;;;;;;;9.95;100.00;100620.09;5000875;28;20053;-75
2022/08/24 03:18:21;;;;;;;6.65;1.70;;;;;;;9.91;100.00;100624.13;5000527;28;20557;-75
2022/08/24 03:20:48;;;;;;;6.82;1.58;;;;;;;9.82;100.00;100609.91;5005295;28;20491;-74
2022/08/24 03:23:14;;;;;;;6.45;2.03;;;;;;;10.15;100.00;100631.22;4990468;28;20046;-74
2022/08/24 03:25:40;;;;;;;5.18;2.17;;;;;;;10.41;100.00;100638.16;4967795;28;20030;-75
2022/08/24 03:28:07;;;;;;;6.65;1.88;;;;;;;10.55;100.00;100632.84;4966049;28;20096;-75
2022/08/24 03:30:32;;;;;;;6.05;1.70;;;;;;;10.73;100.00;100637.09;5003688;28;20068;-74
2022/08/24 03:32:58;;;;;;;6.03;2.08;;;;;;;10.82;100.00;100635.16;4982806;28;20456;-76
2022/08/24 03:35:24;;;;;;;8.52;2.08;;;;;;;10.91;100.00;100632.25;4999767;28;20569;-76
2022/08/24 03:37:50;;;;;;;8.25;1.83;;;;;;;10.97;100.00;100626.13;4975573;28;20057;-74
2022/08/24 03:40:16;;;;;;;11.88;2.63;;;;;;;11.11;100.00;100640.63;4965542;28;20532;-77
2022/08/24 03:42:42;;;;;;;7.70;2.38;;;;;;;11.16;100.00;100640.91;4979746;28;21781;-75
2022/08/24 03:45:08;;;;;;;5.85;2.28;;;;;;;11.26;100.00;100650.59;4998177;28;20097;-74
2022/08/24 03:47:34;;;;;;;9.55;2.30;;;;;;;11.30;100.00;100642.00;5003365;28;20042;-75
2022/08/24 03:49:59;;;;;;;9.10;2.08;;;;;;;11.38;100.00;100639.22;4986231;28;20037;-75
2022/08/24 03:52:25;;;;;;;5.63;2.00;;;;;;;11.42;100.00;100642.34;4979228;28;20044;-75
2022/08/24 03:54:51;;;;;;;8.13;2.22;;;;;;;11.42;100.00;100635.13;4982371;28;20388;-75
2022/08/24 03:57:17;;;;;;;8.77;2.30;;;;;;;11.43;100.00;100634.13;4972357;28;20045;-76
2022/08/24 03:59:43;;;;;;;8.02;2.08;;;;;;;11.45;100.00;100636.59;4993272;28;20025;-77
2022/08/24 04:02:08;;;;;;;5.97;2.10;;;;;;;11.44;100.00;100638.47;4970877;28;20066;-76
2022/08/24 04:04:34;;;;;;;5.25;2.28;;;;;;;11.47;100.00;100639.94;4998205;28;20036;-76
2022/08/24 04:07:00;;;;;;;10.05;2.33;;;;;;;11.46;100.00;100635.59;4991621;28;20550;-76
2022/08/24 04:09:26;;;;;;;9.75;2.15;;;;;;;11.50;100.00;100633.38;4979832;28;20053;-74
2022/08/24 04:11:51;;;;;;;10.60;2.30;;;;;;;11.43;100.00;100623.34;5002300;28;20383;-75
2022/08/24 04:14:18;;;;;;;5.82;2.13;;;;;;;11.53;100.00;100641.91;4991500;28;20435;-75
2022/08/24 04:16:44;;;;;;;7.95;2.50;;;;;;;11.52;100.00;100647.47;4974576;28;20038;-75
2022/08/24 04:19:12;;;;;;;9.48;2.28;;;;;;;11.41;100.00;100635.31;5004736;28;20037;-76
2022/08/24 04:21:38;;;;;;;6.10;1.90;;;;;;;11.29;100.00;100629.53;4965745;28;20038;-75
2022/08/24 04:24:05;;;;;;;7.82;2.13;;;;;;;11.18;100.00;100638.88;4966973;28;20042;-76
2022/08/24 04:26:32;;;;;;;16.65;2.60;;;;;;;11.06;100.00;100631.44;4998876;28;20383;-75
2022/08/24 04:28:58;;;;;;;9.43;2.10;;;;;;;11.06;100.00;100645.75;4996531;28;20046;-75
2022/08/24 04:31:24;;;;;;;8.25;1.88;;;;;;;10.99;100.00;100634.03;4972880;28;20045;-76
2022/08/24 04:33:50;;;;;;;8.73;1.70;;;;;;;10.90;100.00;100640.47;4982952;28;20701;-75
2022/08/24 04:36:18;;;;;;;6.53;1.92;;;;;;;10.85;100.00;100643.72;4980693;28;20056;-76
2022/08/24 04:38:45;;;;;;;8.55;1.77;;;;;;;10.68;100.00;100616.13;4996817;28;20041;-76
2022/08/24 04:41:12;;;;;;;5.00;1.88;;;;;;;10.72;100.00;100638.94;5007348;28;20041;-76
2022/08/24 04:43:38;;;;;;;9.60;2.05;;;;;;;10.60;100.00;100626.94;4981116;28;20129;-75
2022/08/24 04:46:05;;;;;;;6.72;1.90;;;;;;;10.72;100.00;100649.72;4991331;28;20042;-76
2022/08/24 04:48:34;;;;;;;9.35;2.40;;;;;;;10.58;100.00;100628.97;5004691;28;20050;-75
2022/08/24 04:51:05;;;;;;;11.68;2.80;;;;;;;10.60;100.00;100644.94;4970395;28;20077;-75
2022/08/24 04:53:32;;;;;;;5.68;1.90;;;;;;;10.36;100.00;100637.84;5000545;28;20041;-75
2022/08/24 04:55:58;;;;;;;10.35;1.90;;;;;;;10.37;100.00;100647.59;4973118;28;20144;-75
2022/08/24 04:58:24;;;;;;;9.82;2.00;;;;;;;10.45;100.00;100647.53;5005395;28;20040;-76
2022/08/24 05:00:50;;;;;;;8.00;2.60;;;;;;;10.50;100.00;100662.09;4986497;28;20037;-75
2022/08/24 05:03:15;;;;;;;6.10;1.63;;;;;;;10.37;100.00;100645.72;5010271;28;20490;-76
2022/08/24 05:05:44;;;;;;;6.07;2.45;;;;;;;10.34;100.00;100657.66;4983008;28;20070;-76
2022/08/24 05:08:10;;;;;;;10.18;2.05;;;;;;;10.34;100.00;100652.28;4999061;28;20030;-75
2022/08/24 05:10:43;;;;;;;8.32;2.25;;;;;;;10.25;100.00;100652.50;5008086;28;20038;-75
2022/08/24 05:13:09;;;;;;;7.97;2.20;;;;;;;10.08;100.00;100657.97;4977529;28;20128;-75
2022/08/24 05:15:40;;;;;;;5.70;1.80;;;;;;;9.92;100.00;100649.94;5008939;28;22112;-76
2022/08/24 05:18:06;;;;;;;4.93;2.22;;;;;;;9.96;100.00;100678.16;4984831;28;20030;-75
2022/08/24 05:20:56;;;;;;;10.20;2.85;;;;;;;9.85;100.00;100682.06;4981482;28;20043;-76
2022/08/24 05:23:22;;;;;;;3.90;1.80;;;;;;;9.70;100.00;100681.09;4966978;28;20487;-76
2022/08/24 05:25:48;;;;;;;6.03;1.83;;;;;;;9.78;100.00;100680.22;5002834;28;20026;-75
2022/08/24 05:28:13;;;;;;;8.07;2.08;;;;;;;9.71;100.00;100676.53;4982878;28;20030;-74
2022/08/24 05:30:42;;;;;;;7.32;1.75;;;;;;;9.80;100.00;100683.59;4974184;28;20030;-75
2022/08/24 05:33:07;;;;;;;9.98;2.15;;;;;;;9.75;100.00;100677.88;5001063;28;20042;-75
2022/08/24 05:35:39;;;;;;;7.00;1.73;;;;;;;9.67;100.00;100682.25;4992038;28;20045;-75
2022/08/24 05:38:05;;;;;;;5.50;1.60;;;;;;;9.60;100.00;100672.38;4973261;28;20492;-75
2022/08/24 05:40:31;;;;;;;8.40;2.13;;;;;;;9.71;100.00;100688.13;4996262;28;20133;-76
2022/08/24 05:42:57;;;;;;;6.95;2.03;;;;;;;9.76;100.00;100691.13;5004598;28;20054;-75
2022/08/24 05:45:22;;;;;;;7.60;1.95;;;;;;;9.91;100.00;100677.84;4971428;28;20041;-75
2022/08/24 05:47:48;;;;;;;7.85;2.13;;;;;;;10.07;100.00;100677.75;4987486;28;20112;-75
2022/08/24 05:50:13;;;;;;;13.07;2.58;;;;;;;10.26;100.00;100684.56;4998326;28;20498;-75
2022/08/24 05:52:39;;;;;;;12.27;2.30;;;;;;;10.45;100.00;100693.22;5002280;28;20108;-77
2022/08/24 05:55:05;;;;;;;13.23;2.45;;;;;;;10.55;100.00;100683.91;4971295;28;20050;-74
2022/08/24 05:57:33;;;;;;;6.55;2.20;;;;;;;10.67;100.00;100692.44;4970944;28;20065;-76
2022/08/24 06:00:00;;;;;;;8.07;2.28;;;;;;;10.66;100.00;100679.16;4988462;28;20114;-77
2022/08/24 06:02:25;;;;;;;9.00;2.28;;;;;;;10.86;100.00;100701.88;4999451;28;20034;-76
2022/08/24 06:04:51;;;;;;;7.40;1.92;;;;;;;10.94;100.00;100703.69;5011803;28;20121;-76
2022/08/24 06:07:17;;;;;;;4.93;2.15;;;;;;;10.99;100.00;100690.53;4973763;28;20072;-76
2022/08/24 06:09:43;;;;;;;4.60;2.05;;;;;;;11.08;100.00;100699.38;5001392;28;20039;-76
2022/08/24 06:12:10;;;;;;;13.80;2.55;;;;;;;10.89;100.00;100668.41;4987436;28;20065;-76
2022/08/24 06:14:37;;;;;;;11.38;3.20;;;;;;;11.19;100.00;100704.31;5000948;28;20029;-76
2022/08/24 06:17:05;;;;;;;13.43;2.30;;;;;;;11.16;100.00;100683.97;4983394;28;20403;-76
2022/08/24 06:19:31;;;;;;;6.25;2.35;;;;;;;11.15;100.00;100686.88;4983287;28;20570;-76
2022/08/24 06:21:58;;;;;;;6.68;2.22;;;;;;;11.36;100.00;100716.63;4999996;28;20545;-77
2022/08/24 06:27:20;;;;;;;11.38;2.60;;;;;;;11.41;100.00;100708.84;4994534;28;20052;-76
2022/08/24 06:27:21;;;;;;;7.22;1.90;;;;;;;11.40;100.00;100707.16;4996619;28;20443;-76
2022/08/24 06:30:00;;;;;;;10.45;2.17;;;;;;;11.47;100.00;100714.50;4986386;28;20183;-76
2022/08/24 06:32:26;;;;;;;8.45;2.40;;;;;;;11.47;100.00;100712.66;4965214;28;20042;-76
2022/08/24 06:34:55;;;;;;;7.97;2.50;;;;;;;11.51;100.00;100713.97;4981816;28;20113;-76
2022/08/24 06:37:26;;;;;;;7.30;2.00;;;;;;;11.53;100.00;100711.06;4992276;28;20030;-76
2022/08/24 06:39:53;;;;;;;11.57;2.50;;;;;;;11.53;100.00;100716.47;4998613;28;20076;-76
2022/08/24 06:42:18;;;;;;;5.47;2.15;;;;;;;11.52;100.00;100717.50;4997211;28;20041;-76
2022/08/24 06:44:47;;;;;;;7.22;2.60;;;;;;;11.66;100.00;100724.75;4986217;28;20083;-76
2022/08/24 06:47:13;;;;;;;6.18;2.10;;;;;;;11.79;100.00;100724.94;4970784;28;20056;-76
2022/08/24 06:49:39;;;;;;;7.93;1.95;;;;;;;11.85;100.00;100726.06;4985918;28;20026;-75
2022/08/24 06:52:05;;;;;;;5.65;2.20;;;;;;;11.91;100.00;100724.50;4983816;28;20034;-74
2022/08/24 06:54:31;;;;;;;9.32;2.03;;;;;;;11.99;100.00;100722.59;4972034;28;20148;-74
2022/08/24 06:56:57;;;;;;;7.07;2.30;;;;;;;12.10;100.00;100730.19;4985728;28;20044;-74
2022/08/24 06:59:26;;;;;;;13.95;2.33;;;;;;;12.21;100.00;100734.28;4991392;28;20030;-76
2022/08/24 07:01:54;;;;;;;13.43;3.97;;;;;;;12.38;100.00;100744.84;5007841;28;20041;-76
2022/08/24 07:04:25;;;;;;;7.13;1.95;;;;;;;12.57;100.00;100744.28;4962885;28;20041;-74
2022/08/24 07:06:51;;;;;;;5.18;2.05;;;;;;;12.79;100.00;100747.84;5000753;28;20033;-74
2022/08/24 07:09:23;;;;;;;8.02;2.05;;;;;;;13.03;100.00;100746.66;4964789;28;20567;-75
2022/08/24 07:11:50;;;;;;;7.28;2.53;;;;;;;13.34;100.00;100756.31;4987833;28;20026;-74
2022/08/24 07:14:16;;;;;;;8.60;2.33;;;;;;;13.55;100.00;100752.78;4997456;28;20128;-75
2022/08/24 07:16:42;;;;;;;6.72;1.75;;;;;;;13.79;100.00;100752.31;4998603;28;20034;-74
2022/08/24 07:19:08;;;;;;;8.60;1.83;;;;;;;14.24;100.00;100763.63;5007272;28;20064;-75
2022/08/24 07:21:33;;;;;;;5.18;1.70;;;;;;;15.09;100.00;100757.94;4968483;28;20038;-76
2022/08/24 07:24:01;;;;;;;11.48;2.28;;;;;;;15.76;100.00;100742.56;4993335;28;20095;-75
2022/08/24 07:26:28;;;;;;;11.02;2.00;;;;;;;16.94;96.25;100758.69;4986536;28;20484;-75
2022/08/24 07:29:00;;;;;;;7.30;1.33;;;;;;;17.71;90.35;100769.41;5002204;28;20049;-75
2022/08/24 07:31:33;;;;;;;6.15;1.40;;;;;;;17.69;88.54;100755.19;4965973;28;20034;-75
2022/08/24 07:34:06;;;;;;;2.72;1.52;;;;;;;17.69;88.35;100769.63;4980185;28;20130;-75
2022/08/24 07:36:33;;;;;;;7.75;2.45;;;;;;;17.78;88.52;100778.31;4969261;28;20139;-77
2022/08/24 07:38:59;;;;;;;9.48;1.52;;;;;;;18.50;82.71;100769.66;5002250;28;20033;-77
2022/08/24 07:41:25;;;;;;;4.60;1.77;;;;;;;19.08;78.34;100775.44;4985802;28;20073;-78
2022/08/24 07:43:52;;;;;;;5.03;1.52;;;;;;;19.83;73.42;100778.69;4965903;28;20081;-76
2022/08/24 07:46:18;;;;;;;14.20;2.72;;;;;;;20.37;70.75;100774.72;4963186;28;20025;-76
2022/08/24 07:48:44;;;;;;;7.78;1.63;;;;;;;20.08;71.14;100773.81;4999423;28;20030;-77
2022/08/24 07:51:12;;;;;;;7.45;1.58;;;;;;;19.43;72.51;100790.22;5008697;28;20419;-75
2022/08/24 07:53:38;;;;;;;8.52;1.52;;;;;;;18.67;76.06;100800.66;4979209;28;20053;-76
2022/08/24 07:56:05;;;;;;;6.18;1.63;;;;;;;18.06;79.53;100796.94;5007581;28;20042;-77
2022/08/24 07:58:31;;;;;;;8.45;2.67;;;;;;;17.62;81.17;100787.88;4980726;28;20034;-77
2022/08/24 08:00:57;;;;;;;5.68;1.15;;;;;;;17.24;82.13;100796.13;4976845;28;20034;-77
2022/08/24 08:03:25;;;;;;;7.93;1.90;;;;;;;16.90;83.22;100790.84;4966349;28;20069;-77
2022/08/24 08:05:55;;;;;;;7.45;1.60;;;;;;;16.88;83.23;100797.56;4990201;28;20026;-76
2022/08/24 08:08:22;;;;;;;7.32;1.40;;;;;;;16.86;83.65;100800.50;4985591;28;20472;-75
2022/08/24 08:10:47;;;;;;;9.73;1.80;;;;;;;16.87;85.11;100799.44;4970346;28;20030;-74
2022/08/24 08:13:14;;;;;;;14.90;2.13;;;;;;;16.78;85.50;100799.94;4965619;28;20124;-74
2022/08/24 08:15:40;;;;;;;9.50;1.52;;;;;;;16.66;85.28;100811.41;4985609;28;20096;-74
2022/08/24 08:18:09;;;;;;;8.80;1.52;;;;;;;16.46;85.99;100802.53;4972954;28;20042;-74
2022/08/24 08:20:37;;;;;;;4.38;1.42;;;;;;;16.40;87.13;100812.31;4983535;28;20042;-75
2022/08/24 08:25:53;;;;;;;9.68;1.67;;;;;;;16.24;87.38;100810.06;4990357;28;20479;-74
2022/08/24 08:28:19;;;;;;;6.13;1.67;;;;;;;16.13;87.34;100814.25;4992700;28;20033;-74
2022/08/24 08:30:46;;;;;;;6.53;1.30;;;;;;;16.07;87.00;100817.00;4988550;28;20034;-75
2022/08/24 08:33:12;;;;;;;7.68;1.90;;;;;;;15.93;86.52;100816.16;4992952;28;20046;-75
2022/08/24 08:35:39;;;;;;;8.52;1.60;;;;;;;15.87;85.90;100819.72;4994490;28;20450;-75
2022/08/24 08:38:06;;;;;;;2.72;1.13;;;;;;;15.84;86.18;100815.53;4969479;28;20049;-74
2022/08/24 08:40:37;;;;;;;8.18;1.30;;;;;;;15.87;86.05;100817.81;4976012;28;20044;-75
2022/08/24 08:43:32;;;;;;;6.38;1.60;;;;;;;16.04;84.56;100821.78;4989662;28;20132;-73
2022/08/24 08:46:14;;;;;;;8.23;1.83;;;;;;;16.48;81.43;100822.09;5001251;28;20071;-74
2022/08/24 08:48:52;;;;;;;6.17;1.60;;;;;;;16.98;78.22;100832.41;5006891;28;20091;-74
2022/08/24 08:51:27;;;;;;;4.80;1.50;;;;;;;17.42;75.21;100814.41;5006932;28;20282;-76
2022/08/24 08:54:25;;;;;;;5.43;1.00;;;;;;;17.95;72.67;100836.59;4987541;28;20034;-75
2022/08/24 08:57:04;;;;;;;5.03;1.45;;;;;;;18.65;69.92;100843.63;4983853;28;20030;-75
2022/08/24 09:00:08;;;;;;;6.43;2.83;;;;;;;19.45;65.93;100842.63;4983746;28;20053;-74
2022/08/24 09:03:02;;;;;;;6.78;1.40;;;;;;;19.23;65.46;100850.47;4984077;28;20068;-73
2022/08/24 09:05:30;;;;;;;5.93;1.45;;;;;;;18.61;67.86;100840.53;5005835;28;20026;-75
2022/08/24 09:08:00;;;;;;;5.70;1.20;;;;;;;18.09;70.36;100853.63;5003577;28;20061;-75
2022/08/24 09:10:56;;;;;;;5.43;1.40;;;;;;;18.09;70.24;100847.34;4990718;28;20068;-75
2022/08/24 09:13:52;;;;;;;11.07;1.70;;;;;;;17.55;72.25;100849.66;4973693;28;20046;-73
2022/08/24 09:16:59;;;;;;;6.55;1.38;;;;;;;16.52;76.60;100847.78;4990464;28;20065;-74
2022/08/24 09:20:06;;;;;;;6.93;1.60;;;;;;;16.01;78.98;100845.81;4983863;28;20442;-75
2022/08/24 09:22:38;;;;;;;6.03;1.70;;;;;;;17.98;72.42;100847.03;4985780;28;20047;-76
2022/08/24 09:25:19;;;;;;;5.20;1.55;;;;;;;20.46;61.32;100846.19;4974151;28;20129;-75
2022/08/24 09:28:05;;;;;;;10.57;1.80;;;;;;;23.95;51.00;100844.13;4975147;28;20038;-73
2022/08/24 09:31:09;;;;;;;4.93;1.70;;;;;;;24.37;47.87;100846.91;4988847;28;20033;-75
2022/08/24 09:33:54;;;;;;;6.10;1.48;;;;;;;24.34;46.54;100841.94;4987560;28;20069;-74
2022/08/24 09:36:44;;;;;;;2.35;1.20;;;;;;;25.61;42.43;100816.00;4982881;28;20523;-75
2022/08/24 09:39:25;;;;;;;5.65;1.80;;;;;;;25.75;42.55;100843.81;4981175;28;20141;-74
2022/08/24 09:42:13;;;;;;;7.97;2.00;;;;;;;25.94;42.41;100844.13;4989070;28;20124;-75
2022/08/24 09:45:00;;;;;;;2.90;1.05;;;;;;;25.23;41.27;100837.44;4993752;28;20126;-75
2022/08/24 09:47:47;;;;;;;7.70;1.58;;;;;;;25.60;40.49;100828.13;5005440;28;20396;-75
2022/08/24 09:50:18;;;;;;;10.95;1.65;;;;;;;26.20;39.58;100851.28;4990234;28;20030;-76
2022/08/24 09:53:07;;;;;;;5.97;1.23;;;;;;;24.93;40.29;100838.16;4986055;28;21083;-75
2022/08/24 09:55:48;;;;;;;1.15;0.90;;;;;;;25.30;40.25;100850.91;4999618;28;20112;-74
2022/08/24 09:58:36;;;;;;;4.93;1.20;;;;;;;26.25;38.19;100842.16;4983900;28;20093;-75
2022/08/24 10:01:30;;;;;;;6.30;1.13;;;;;;;24.68;39.70;100836.94;5008845;28;20839;-72
2022/08/24 10:04:10;;;;;;;10.45;2.05;;;;;;;26.26;38.75;100841.06;4982744;28;20041;-74
2022/08/24 10:07:04;;;;;;;6.63;1.25;;;;;;;25.51;37.66;100838.88;4985608;28;20543;-75
2022/08/24 10:09:49;;;;;;;6.30;1.27;;;;;;;26.38;37.05;100802.16;5005043;28;20088;-76
2022/08/24 10:12:23;;;;;;;6.10;1.42;;;;;;;25.95;36.34;100809.97;4988361;28;20045;-76
2022/08/24 10:15:10;;;;;;;6.22;1.10;;;;;;;23.66;41.18;100842.53;4984700;28;20030;-76
2022/08/24 10:18:13;;;;;;;2.67;0.93;;;;;;;22.05;45.11;100846.53;4995362;28;20056;-77
2022/08/24 10:20:45;;;;;;;5.78;1.33;;;;;;;22.23;46.36;100850.91;5008454;28;20486;-76
2022/08/24 10:23:55;;;;;;;10.40;1.55;;;;;;;21.45;48.30;100843.31;4988582;28;20023;-78
2022/08/24 10:26:30;;;;;;;4.80;1.42;;;;;;;25.52;39.22;100857.03;5004049;28;20091;-76
2022/08/24 10:29:30;;;;;;;4.07;1.35;;;;;;;27.13;35.64;100858.13;4989197;28;20045;-77
2022/08/24 10:32:19;;;;;;;5.57;1.65;;;;;;;25.53;38.28;100857.84;5007781;28;20037;-77
2022/08/24 10:34:47;;;;;;;4.18;1.13;;;;;;;22.91;42.32;100838.69;4986390;28;20054;-77
2022/08/24 10:37:48;;;;;;;4.68;1.25;;;;;;;20.80;48.59;100865.53;4990825;28;20038;-77
2022/08/24 10:40:23;;;;;;;9.35;1.55;;;;;;;19.28;53.47;100873.25;5009357;28;20644;-75
2022/08/24 10:46:21;;;;;;;6.00;1.60;;;;;;;25.33;40.37;100862.22;4987496;28;20107;-77
2022/08/24 10:49:12;;;;;;;8.05;1.45;;;;;;;27.13;36.57;100869.19;4995106;28;20025;-76
2022/08/24 10:51:59;;;;;;;3.70;1.60;;;;;;;26.31;37.93;100871.38;4989746;28;20728;-76
2022/08/24 10:54:25;;;;;;;5.00;1.15;;;;;;;26.64;35.61;100867.16;5005400;28;20057;-77
2022/08/24 10:57:07;;;;;;;8.98;1.63;;;;;;;24.25;40.25;100876.53;5000306;28;20056;-77
2022/08/24 10:59:50;;;;;;;7.25;1.75;;;;;;;26.19;36.39;100874.41;4962461;28;20045;-78
2022/08/24 11:02:28;;;;;;;5.15;1.10;;;;;;;26.91;35.77;100868.72;4999919;28;20045;-76
2022/08/24 11:05:04;;;;;;;6.53;1.40;;;;;;;27.89;33.15;100880.91;5000018;28;20436;-77
2022/08/24 11:07:31;;;;;;;8.90;1.50;;;;;;;27.64;31.90;100873.59;4973389;28;20034;-76
2022/08/24 11:10:05;;;;;;;4.18;1.20;;;;;;;27.38;32.70;100856.38;4975898;28;20033;-78
2022/08/24 11:12:37;;;;;;;9.43;1.40;;;;;;;27.90;31.93;100865.13;4971996;28;20034;-77
2022/08/24 11:15:22;;;;;;;4.93;1.45;;;;;;;28.21;31.87;100868.41;4971537;28;20034;-77
2022/08/24 11:18:01;;;;;;;7.03;1.85;;;;;;;27.95;32.93;100860.38;4989229;28;20046;-76
2022/08/24 11:20:35;;;;;;;8.52;2.17;;;;;;;28.25;32.52;100841.84;4984945;28;20065;-78
2022/08/24 11:23:05;;;;;;;4.70;1.00;;;;;;;25.40;36.64;100859.19;4969834;28;20088;-77
2022/08/24 11:25:33;;;;;;;5.40;1.50;;;;;;;24.45;38.60;100856.59;4989332;28;20030;-77
2022/08/24 11:28:04;;;;;;;4.35;1.25;;;;;;;25.97;35.76;100852.66;4982976;28;20049;-77
2022/08/24 11:30:31;;;;;;;6.00;1.90;;;;;;;28.79;30.68;100860.09;4972069;28;20623;-77
2022/08/24 11:32:58;;;;;;;8.90;1.55;;;;;;;29.96;28.41;100821.53;4975132;28;20030;-76
2022/08/24 11:35:33;;;;;;;4.75;1.35;;;;;;;27.62;29.95;100853.72;4989356;28;20038;-77
2022/08/24 11:38:15;;;;;;;2.90;0.80;;;;;;;24.64;34.05;100852.31;4980288;28;20085;-76
2022/08/24 11:40:44;;;;;;;4.22;1.20;;;;;;;24.84;34.02;100859.81;4983372;28;20092;-76
2022/08/24 11:43:42;;;;;;;3.90;1.17;;;;;;;27.84;29.72;100869.88;4999650;28;20109;-76
2022/08/24 11:46:21;;;;;;;2.70;1.05;;;;;;;28.85;29.28;100869.97;4986146;28;20050;-76